Time;durP1;ratioP1;P1;durP2;ratioP2;P2;SDS_P1;SDS_P2;PMS_P1;PMS_P2;Temp;Humidity;BMP_temperature;BMP_pressure;BME280_temperature;BME280_humidity;BME280_pressure;Samples;Min_cycle;Max_cycle;Signal;HPM_P1;HPM_P2
2022/04/26 03:36:10;;;;;;;81.28;30.58;;;;;;;12.54;56.76;94649.34;4999307;28;20113;-76
2022/04/26 03:38:36;;;;;;;76.35;35.33;;;;;;;12.56;56.68;94643.88;4985281;28;20480;-76
2022/04/26 03:41:02;;;;;;;78.85;36.10;;;;;;;12.57;56.17;94654.06;4998052;28;20052;-76
2022/04/26 03:43:37;;;;;;;92.38;32.22;;;;;;;12.51;56.49;94660.25;4982414;28;20422;-76
2022/04/26 03:46:03;;;;;;;71.95;30.38;;;;;;;12.52;56.48;94661.03;4999351;28;20057;-76
2022/04/26 03:48:28;;;;;;;52.78;26.95;;;;;;;12.49;55.97;94664.94;4999795;28;20042;-76
2022/04/26 03:50:53;;;;;;;64.53;25.15;;;;;;;12.50;56.31;94661.28;4997233;28;20374;-76
2022/04/26 03:53:19;;;;;;;51.28;21.83;;;;;;;12.56;56.45;94659.53;4998126;28;20041;-76
2022/04/26 03:55:45;;;;;;;66.97;18.08;;;;;;;12.60;56.07;94664.00;4998398;28;20100;-76
2022/04/26 03:58:10;;;;;;;33.08;12.07;;;;;;;12.71;56.21;94657.06;4995859;28;20522;-76
2022/04/26 04:00:36;;;;;;;43.35;16.80;;;;;;;12.77;55.83;94663.09;4998317;28;20041;-77
2022/04/26 04:03:01;;;;;;;53.65;24.17;;;;;;;13.03;54.91;94664.88;4997068;28;20170;-77
2022/04/26 04:05:27;;;;;;;61.85;20.15;;;;;;;13.89;52.60;94674.28;4999787;28;20042;-78
2022/04/26 04:07:52;;;;;;;39.20;15.35;;;;;;;15.09;49.13;94671.38;5000067;28;20038;-77
2022/04/26 04:10:18;;;;;;;71.47;14.25;;;;;;;16.35;47.10;94670.25;4999632;28;20049;-76
2022/04/26 04:12:43;;;;;;;29.95;14.43;;;;;;;17.64;43.64;94671.66;4982978;28;20054;-77
2022/04/26 04:15:09;;;;;;;64.05;15.52;;;;;;;18.92;40.80;94673.50;4990800;28;20038;-77
2022/04/26 04:17:35;;;;;;;45.97;16.02;;;;;;;20.32;37.70;94673.88;5000040;28;20198;-75
2022/04/26 04:20:00;;;;;;;66.63;16.75;;;;;;;21.66;35.17;94675.09;4999606;28;20403;-77
2022/04/26 04:22:26;;;;;;;46.40;16.10;;;;;;;22.97;32.94;94683.06;4998750;28;20064;-77
2022/04/26 04:24:51;;;;;;;76.20;19.42;;;;;;;24.21;30.89;94677.56;4998416;28;20042;-77
2022/04/26 04:27:17;;;;;;;83.40;19.88;;;;;;;25.39;28.74;94677.41;4999173;28;20030;-77
2022/04/26 04:29:43;;;;;;;89.20;21.90;;;;;;;26.56;27.20;94680.41;5000720;28;20401;-77
2022/04/26 04:32:08;;;;;;;97.22;22.38;;;;;;;27.76;25.42;94687.56;5002562;28;20034;-77
2022/04/26 04:34:36;;;;;;;83.68;19.65;;;;;;;28.83;23.96;94683.94;4984747;28;20456;-78
2022/04/26 04:37:02;;;;;;;76.68;21.83;;;;;;;29.83;23.13;94682.09;4984801;28;20686;-78
2022/04/26 04:39:27;;;;;;;72.60;20.35;;;;;;;30.87;22.22;94683.69;5003504;28;20034;-77
2022/04/26 04:41:53;;;;;;;55.35;16.30;;;;;;;31.93;20.60;94686.81;5002434;28;20052;-78
2022/04/26 04:44:19;;;;;;;52.70;14.38;;;;;;;32.92;19.81;94688.72;5003867;28;20042;-78
2022/04/26 04:46:45;;;;;;;37.60;9.23;;;;;;;33.67;18.70;94687.06;5000399;28;20042;-78
2022/04/26 04:49:10;;;;;;;44.60;10.50;;;;;;;34.53;17.66;94696.81;5002102;28;20529;-82
2022/04/26 04:51:43;;;;;;;60.60;11.25;;;;;;;35.41;16.92;94692.34;5001550;28;20058;-79
2022/04/26 04:54:08;;;;;;;47.75;10.48;;;;;;;36.17;16.05;94690.75;5003153;28;20038;-72
2022/04/26 04:56:34;;;;;;;43.78;9.00;;;;;;;36.92;15.25;94695.50;5004331;28;20100;-77
2022/04/26 04:58:59;;;;;;;40.90;9.30;;;;;;;37.60;14.65;94683.88;5002530;28;20038;-77
2022/04/26 05:01:25;;;;;;;63.15;8.50;;;;;;;38.25;13.98;94681.81;5000352;28;20444;-75
2022/04/26 05:03:51;;;;;;;37.13;6.97;;;;;;;38.98;13.37;94689.06;5001441;28;20208;-75
2022/04/26 05:06:16;;;;;;;34.20;7.50;;;;;;;39.56;13.16;94693.00;5000805;28;20034;-75
2022/04/26 05:08:42;;;;;;;27.55;6.85;;;;;;;40.32;12.41;94683.88;4983624;28;20042;-75
2022/04/26 05:11:08;;;;;;;38.17;5.72;;;;;;;41.09;11.67;94694.75;5000737;28;20112;-77
2022/04/26 05:13:33;;;;;;;38.25;7.13;;;;;;;41.64;11.31;94695.53;5001816;28;20045;-74
2022/04/26 05:15:59;;;;;;;23.85;6.38;;;;;;;41.84;11.22;94702.81;5002231;28;20058;-75
2022/04/26 05:18:42;;;;;;;31.70;6.55;;;;;;;42.65;10.67;94698.72;5001518;28;20046;-75
2022/04/26 05:21:19;;;;;;;14.48;4.63;;;;;;;43.13;9.54;94695.47;5000192;28;20026;-76
2022/04/26 05:26:29;;;;;;;28.50;6.07;;;;;;;43.90;8.91;94695.00;5002280;28;20068;-75
2022/04/26 05:28:55;;;;;;;13.15;2.80;;;;;;;44.58;8.77;94693.09;5001089;28;20840;-75
2022/04/26 05:31:20;;;;;;;26.05;3.95;;;;;;;44.87;8.32;94698.13;5001272;28;20037;-75
2022/04/26 05:33:46;;;;;;;10.10;2.03;;;;;;;45.20;8.32;94693.56;5001534;28;20071;-80
2022/04/26 05:36:11;;;;;;;7.15;2.20;;;;;;;44.87;8.19;94698.94;4993581;28;20041;-81
2022/04/26 05:38:36;;;;;;;4.95;1.63;;;;;;;45.18;8.27;94701.50;5008629;28;20080;-80
2022/04/26 05:41:02;;;;;;;10.50;1.60;;;;;;;45.70;7.96;94694.09;5004805;28;20030;-81
2022/04/26 05:43:28;;;;;;;7.25;2.03;;;;;;;45.89;7.94;94700.31;4989428;28;20038;-80
2022/04/26 05:45:53;;;;;;;11.00;2.22;;;;;;;46.32;7.54;94706.53;4989917;28;20038;-80
2022/04/26 05:48:19;;;;;;;9.68;2.30;;;;;;;46.93;7.04;94705.09;5010029;28;20045;-80
2022/04/26 05:50:44;;;;;;;13.25;2.30;;;;;;;47.14;7.03;94708.75;5007708;28;20091;-81
2022/04/26 05:53:10;;;;;;;14.88;2.75;;;;;;;47.25;7.05;94708.22;5007911;28;20088;-80
2022/04/26 05:55:35;;;;;;;12.90;2.63;;;;;;;47.65;6.51;94706.91;5030413;23;20057;-79
2022/04/26 05:58:03;;;;;;;11.88;1.63;;;;;;;47.84;6.71;94705.44;4967359;28;20039;-79
2022/04/26 06:00:29;;;;;;;4.20;1.90;;;;;;;47.93;6.48;94702.63;4978828;28;20030;-79
2022/04/26 06:02:55;;;;;;;10.98;1.75;;;;;;;48.05;6.31;94701.53;4977073;28;20056;-78
2022/04/26 06:05:21;;;;;;;11.57;2.00;;;;;;;47.79;6.51;94703.38;4977666;28;20418;-80
2022/04/26 06:07:46;;;;;;;10.90;2.28;;;;;;;47.52;6.69;94696.94;4977469;28;20050;-78
2022/04/26 06:10:12;;;;;;;9.98;2.05;;;;;;;47.14;7.09;94699.75;4978162;28;20037;-79
2022/04/26 06:12:39;;;;;;;9.23;1.83;;;;;;;46.51;7.44;94691.47;4976241;28;20097;-81
2022/04/26 06:15:04;;;;;;;3.28;1.70;;;;;;;45.89;7.73;94694.03;4977557;28;20078;-80
2022/04/26 06:17:32;;;;;;;8.38;1.95;;;;;;;44.48;8.06;94689.59;4976911;28;20035;-81
2022/04/26 06:19:57;;;;;;;6.35;2.05;;;;;;;43.13;9.21;94690.00;4977764;28;20105;-80
2022/04/26 06:22:23;;;;;;;10.38;1.95;;;;;;;41.76;10.08;94685.88;4962261;28;20066;-79
2022/04/26 06:24:50;;;;;;;5.30;1.40;;;;;;;40.64;11.14;94680.38;4973400;28;20034;-80
2022/04/26 06:27:15;;;;;;;7.97;1.92;;;;;;;39.85;11.64;94674.03;4976067;28;20042;-79
2022/04/26 06:29:41;;;;;;;10.23;1.83;;;;;;;38.96;12.11;94672.41;4976826;28;20027;-79
2022/04/26 06:32:07;;;;;;;50.72;2.30;;;;;;;38.29;12.47;94675.13;4975130;28;20031;-80
2022/04/26 06:34:32;;;;;;;11.52;1.90;;;;;;;37.73;13.00;94674.78;4976587;28;20065;-79
2022/04/26 06:36:58;;;;;;;8.82;2.30;;;;;;;37.09;13.02;94670.13;4977906;28;20022;-80
2022/04/26 06:39:23;;;;;;;8.45;1.98;;;;;;;36.37;13.36;94669.31;4976428;28;20494;-79
2022/04/26 06:41:48;;;;;;;8.30;2.28;;;;;;;35.88;14.13;94670.47;4977052;28;20035;-79
2022/04/26 06:44:14;;;;;;;6.35;1.58;;;;;;;35.26;14.51;94671.16;4975420;28;20037;-80
2022/04/26 06:46:39;;;;;;;5.18;1.83;;;;;;;34.69;15.08;94671.31;4976901;28;20060;-79
2022/04/26 06:49:05;;;;;;;9.45;1.85;;;;;;;34.20;15.04;94664.81;4960441;28;20406;-79
2022/04/26 06:51:33;;;;;;;4.97;1.85;;;;;;;33.59;15.68;94663.94;4961212;28;20038;-79
2022/04/26 06:53:58;;;;;;;5.88;1.70;;;;;;;33.06;16.43;94668.00;4976407;28;20027;-80
2022/04/26 06:56:53;;;;;;;9.00;1.85;;;;;;;32.67;16.60;94656.22;4979499;28;20114;-79
2022/04/26 06:59:18;;;;;;;6.10;1.70;;;;;;;32.39;16.28;94667.63;4991737;28;20022;-79
2022/04/26 07:01:45;;;;;;;4.65;1.73;;;;;;;32.10;17.17;94664.69;4991794;28;20074;-80
2022/04/26 07:04:11;;;;;;;9.00;1.90;;;;;;;31.84;17.38;94664.84;4965855;28;20023;-78
2022/04/26 07:06:38;;;;;;;12.75;1.73;;;;;;;31.40;17.46;94660.16;4977953;28;20471;-80
2022/04/26 07:09:04;;;;;;;13.00;1.70;;;;;;;31.27;17.54;94661.56;5026661;23;20054;-78
2022/04/26 07:11:29;;;;;;;5.97;1.63;;;;;;;31.22;17.77;94661.88;4997036;28;20037;-78
2022/04/26 07:13:57;;;;;;;3.40;1.40;;;;;;;30.95;17.85;94663.84;4996596;28;20038;-79
2022/04/26 07:16:22;;;;;;;4.05;1.80;;;;;;;30.84;18.38;94658.34;4992915;28;20033;-79
2022/04/26 07:18:48;;;;;;;3.90;1.20;;;;;;;30.28;18.15;94653.72;4978526;28;20038;-78
2022/04/26 07:21:13;;;;;;;5.30;1.63;;;;;;;29.13;19.38;94666.25;4994574;28;20041;-79
2022/04/26 07:23:39;;;;;;;3.88;1.70;;;;;;;28.86;19.72;94659.94;4996730;28;20405;-78
2022/04/26 07:26:04;;;;;;;2.90;1.60;;;;;;;28.68;20.15;94656.88;4979998;28;20030;-78
2022/04/26 07:28:30;;;;;;;6.95;1.30;;;;;;;28.16;20.60;94669.81;4978036;28;20057;-78
2022/04/26 07:30:55;;;;;;;4.20;1.45;;;;;;;27.80;21.26;94655.59;4977368;28;20031;-79
2022/04/26 07:36:06;;;;;;;7.07;1.85;;;;;;;26.78;22.59;94665.81;4998376;28;20545;-79
2022/04/26 07:38:31;;;;;;;8.65;1.95;;;;;;;27.06;22.04;94659.75;4976729;28;20037;-78
2022/04/26 07:40:56;;;;;;;6.05;1.77;;;;;;;27.19;22.10;94653.25;4975697;28;20034;-78
2022/04/26 07:43:47;;;;;;;3.55;1.25;;;;;;;27.14;21.49;94661.47;4992264;28;20046;-78
2022/04/26 07:46:39;;;;;;;1.92;1.08;;;;;;;26.73;22.40;94666.03;4999460;28;20038;-78
2022/04/26 07:49:05;;;;;;;4.53;1.45;;;;;;;26.71;22.38;94668.28;4987845;28;20034;-78
2022/04/26 07:51:31;;;;;;;3.47;1.42;;;;;;;26.36;22.41;94669.88;4992007;28;20084;-78
2022/04/26 07:53:57;;;;;;;3.33;1.15;;;;;;;26.49;22.22;94653.53;4993660;28;20035;-78
2022/04/26 07:56:22;;;;;;;7.78;1.67;;;;;;;26.62;22.53;94657.72;4991658;28;20038;-78
2022/04/26 07:58:48;;;;;;;4.38;1.23;;;;;;;26.63;22.15;94658.50;4994162;28;20117;-78
2022/04/26 08:01:14;;;;;;;3.72;1.38;;;;;;;26.46;22.79;94664.09;4960095;28;20068;-78
2022/04/26 08:03:39;;;;;;;8.98;1.25;;;;;;;26.01;22.95;94659.63;4977591;28;20053;-78
2022/04/26 08:06:05;;;;;;;7.10;1.80;;;;;;;25.34;24.32;94658.94;4946310;28;20030;-79
2022/04/26 08:08:30;;;;;;;14.68;1.58;;;;;;;25.46;24.45;94655.53;4964360;28;20054;-79
2022/04/26 08:10:56;;;;;;;12.40;1.60;;;;;;;25.22;24.33;94660.78;4963982;28;20065;-79
2022/04/26 08:13:22;;;;;;;7.75;1.55;;;;;;;25.46;24.52;94660.88;4964428;28;20026;-79
2022/04/26 08:15:47;;;;;;;3.97;1.70;;;;;;;25.61;24.44;94657.56;4962809;28;20097;-79
2022/04/26 08:18:13;;;;;;;12.40;2.10;;;;;;;25.75;24.16;94656.53;4963596;28;20041;-79
2022/04/26 08:20:38;;;;;;;8.63;1.45;;;;;;;25.89;24.09;94662.31;4980567;28;20061;-81
2022/04/26 08:23:06;;;;;;;9.00;1.85;;;;;;;25.85;24.47;94661.41;4996181;28;20025;-79
2022/04/26 08:28:17;;;;;;;4.43;2.03;;;;;;;24.64;25.67;94660.63;4983626;28;20540;-76
2022/04/26 08:30:42;;;;;;;4.70;1.90;;;;;;;24.75;25.87;94653.81;4966015;28;20067;-76
2022/04/26 08:33:08;;;;;;;11.07;2.03;;;;;;;24.63;26.26;94658.28;4964139;28;20198;-76
2022/04/26 08:35:33;;;;;;;8.88;2.65;;;;;;;24.42;26.85;94655.63;4963245;28;20042;-77
2022/04/26 08:37:59;;;;;;;6.80;1.90;;;;;;;24.62;26.43;94654.06;4963458;28;20041;-77
2022/04/26 08:40:26;;;;;;;12.32;2.00;;;;;;;24.83;26.93;94652.19;4963913;28;20035;-77
2022/04/26 08:42:51;;;;;;;11.13;2.33;;;;;;;24.38;27.75;94655.47;4962890;28;20031;-76
2022/04/26 08:45:18;;;;;;;16.33;2.40;;;;;;;24.35;27.39;94648.16;4964322;28;20030;-76
2022/04/26 08:53:15;;;;;;;13.60;3.05;;;;;;;24.02;28.81;94663.16;4963009;28;20451;-76
2022/04/26 08:55:45;;;;;;;15.60;2.13;;;;;;;24.06;29.24;94653.44;4963939;28;20507;-76
2022/04/26 08:58:11;;;;;;;23.90;3.47;;;;;;;23.82;29.58;94651.38;4963283;28;20085;-78
2022/04/26 09:00:39;;;;;;;26.25;2.92;;;;;;;24.03;29.43;94662.03;4964213;28;20398;-77
2022/04/26 09:03:05;;;;;;;13.10;2.55;;;;;;;24.06;28.96;94658.75;4966126;28;20062;-80
2022/04/26 09:05:31;;;;;;;10.48;2.25;;;;;;;24.11;28.96;94645.31;4951474;28;20039;-79
2022/04/26 09:07:56;;;;;;;16.88;2.45;;;;;;;24.12;29.57;94639.66;4968741;28;20058;-80
2022/04/26 09:10:22;;;;;;;17.67;3.00;;;;;;;24.15;29.26;94643.56;4969629;28;20445;-80
2022/04/26 09:13:07;;;;;;;18.67;3.45;;;;;;;23.78;30.11;94648.56;4972010;28;20062;-80
2022/04/26 09:15:50;;;;;;;22.40;2.72;;;;;;;23.89;29.68;94644.44;4969793;28;20031;-79
2022/04/26 09:18:27;;;;;;;12.88;2.72;;;;;;;23.81;30.09;94647.94;4952569;28;20031;-80
2022/04/26 09:20:53;;;;;;;10.80;2.75;;;;;;;23.33;31.58;94649.00;4969500;28;20031;-79
2022/04/26 09:23:29;;;;;;;13.05;2.53;;;;;;;23.35;31.06;94641.50;4968972;28;20031;-80
2022/04/26 09:26:08;;;;;;;14.55;3.08;;;;;;;23.50;31.02;94644.75;4966116;28;20031;-78
2022/04/26 09:28:34;;;;;;;13.73;2.38;;;;;;;23.39;31.61;94638.19;4972427;28;20027;-79
2022/04/26 09:30:59;;;;;;;29.75;2.67;;;;;;;23.46;31.27;94641.16;4949612;28;20026;-78
2022/04/26 09:33:37;;;;;;;16.20;3.00;;;;;;;23.67;30.86;94635.97;4967773;28;20046;-79
2022/04/26 09:36:09;;;;;;;13.25;3.47;;;;;;;23.86;30.75;94636.34;4968062;28;20042;-79
2022/04/26 09:38:48;;;;;;;20.88;2.95;;;;;;;23.87;31.04;94635.25;4966288;28;20419;-78
2022/04/26 09:41:14;;;;;;;26.25;2.78;;;;;;;23.72;31.24;94636.56;4947870;28;20039;-78
2022/04/26 09:43:40;;;;;;;32.47;4.55;;;;;;;23.78;31.53;94627.34;4962231;28;20070;-78
2022/04/26 09:46:06;;;;;;;17.15;3.28;;;;;;;23.71;31.49;94637.66;4961748;28;20038;-78
2022/04/26 09:48:35;;;;;;;26.88;3.55;;;;;;;23.60;31.83;94629.28;4963224;28;20393;-77
2022/04/26 09:51:01;;;;;;;22.15;3.10;;;;;;;23.39;31.38;94620.41;4961307;28;20051;-78
2022/04/26 09:53:26;;;;;;;18.23;3.92;;;;;;;23.17;32.51;94629.38;4963938;28;20053;-78
2022/04/26 09:55:56;;;;;;;28.65;3.92;;;;;;;23.10;32.46;94620.31;4960498;28;20224;-77
2022/04/26 09:58:22;;;;;;;16.10;3.22;;;;;;;23.13;32.09;94631.09;4963303;28;20124;-76
2022/04/26 10:00:49;;;;;;;33.95;4.47;;;;;;;23.20;32.12;94628.72;4963036;28;20115;-77
2022/04/26 10:08:13;;;;;;;10.43;3.35;;;;;;;23.64;31.56;94616.16;4997251;23;20088;-78
2022/04/26 10:10:39;;;;;;;17.67;3.67;;;;;;;23.27;31.66;94610.47;5008309;28;20038;-77
2022/04/26 10:15:56;;;;;;;20.48;3.55;;;;;;;23.38;32.27;94610.09;5006077;28;20043;-77
2022/04/26 10:18:37;;;;;;;17.42;3.53;;;;;;;23.46;32.26;94606.66;5010857;28;20083;-77
2022/04/26 10:21:06;;;;;;;30.20;3.15;;;;;;;23.56;31.76;94603.63;5008296;28;20450;-77
2022/04/26 10:23:50;;;;;;;17.75;3.63;;;;;;;23.60;31.17;94609.91;5008751;28;20025;-77
2022/04/26 10:26:22;;;;;;;18.42;3.30;;;;;;;23.50;30.99;94599.63;5009383;28;20575;-77
2022/04/26 10:28:51;;;;;;;15.07;2.75;;;;;;;23.39;30.61;94598.41;5008357;28;20029;-75
2022/04/26 10:31:17;;;;;;;20.15;4.28;;;;;;;23.49;30.15;94595.41;5031998;28;20117;-75
2022/04/26 10:33:44;;;;;;;10.65;2.80;;;;;;;23.57;29.81;94599.91;5008142;28;20037;-75
2022/04/26 10:36:19;;;;;;;11.02;2.90;;;;;;;23.47;29.96;94594.94;5006976;28;20038;-74
2022/04/26 10:39:04;;;;;;;27.83;3.20;;;;;;;23.41;30.32;94596.19;5009902;28;20041;-75
2022/04/26 10:41:40;;;;;;;25.02;3.50;;;;;;;23.40;30.39;94579.50;4996088;28;20117;-74
2022/04/26 10:44:17;;;;;;;13.57;2.67;;;;;;;23.47;29.85;94579.03;5008422;28;20057;-74
2022/04/26 10:46:44;;;;;;;33.33;3.55;;;;;;;23.54;30.14;94584.59;5016902;28;20048;-75
2022/04/26 10:49:29;;;;;;;15.27;2.92;;;;;;;23.71;30.78;94575.81;5172613;27;20132;-76
2022/04/26 10:51:55;;;;;;;14.20;2.88;;;;;;;23.92;30.73;94574.00;5146019;27;20050;-76
2022/04/26 10:54:45;;;;;;;14.27;2.65;;;;;;;24.11;30.50;94573.56;5146946;27;20031;-76
2022/04/26 10:57:15;;;;;;;25.52;3.30;;;;;;;24.16;29.66;94570.72;5147031;27;20113;-76
2022/04/26 10:59:41;;;;;;;14.98;3.30;;;;;;;23.76;28.82;94570.34;5147306;27;20046;-77
2022/04/26 11:02:11;;;;;;;16.23;2.88;;;;;;;23.26;27.97;94563.00;5128159;27;20031;-77
2022/04/26 11:04:37;;;;;;;10.52;2.17;;;;;;;23.12;26.63;94560.56;5128649;27;20084;-77
2022/04/26 11:07:15;;;;;;;20.65;2.55;;;;;;;23.15;26.89;94565.25;5147124;27;20027;-77
2022/04/26 11:09:49;;;;;;;16.65;2.45;;;;;;;23.30;27.44;94562.06;5129655;27;20057;-77
2022/04/26 11:12:18;;;;;;;12.35;2.20;;;;;;;23.39;26.73;94567.34;5128189;27;20031;-77
2022/04/26 11:14:43;;;;;;;22.20;2.47;;;;;;;23.47;26.88;94558.56;5144353;27;20042;-77
2022/04/26 11:17:09;;;;;;;16.27;2.90;;;;;;;23.55;26.93;94560.41;5147139;27;20088;-77
2022/04/26 11:19:36;;;;;;;15.50;2.55;;;;;;;23.72;27.49;94554.25;5146699;27;20486;-77
2022/04/26 11:22:09;;;;;;;14.57;2.60;;;;;;;23.98;26.27;94550.69;5146689;27;20023;-77
2022/04/26 11:30:05;;;;;;;12.52;2.63;;;;;;;23.92;27.02;94542.13;5146776;27;20046;-77
2022/04/26 11:32:31;;;;;;;16.63;2.75;;;;;;;24.08;27.02;94550.28;5146359;27;20386;-77
2022/04/26 11:34:56;;;;;;;11.50;2.38;;;;;;;24.20;26.45;94550.38;5146151;27;20894;-77
2022/04/26 11:37:22;;;;;;;17.92;2.67;;;;;;;23.88;26.15;94544.63;5148141;27;20513;-77
2022/04/26 11:39:47;;;;;;;11.40;2.53;;;;;;;23.97;26.58;94543.81;5146355;27;20084;-77
2022/04/26 11:42:13;;;;;;;5.38;2.13;;;;;;;24.02;26.46;94535.66;5146651;27;20413;-77
2022/04/26 11:45:04;;;;;;;13.13;2.38;;;;;;;24.08;26.51;94542.31;5146599;27;20505;-77
2022/04/26 11:47:42;;;;;;;14.95;2.60;;;;;;;24.08;25.99;94534.34;5145934;27;20055;-77
2022/04/26 11:50:35;;;;;;;16.33;2.45;;;;;;;24.15;26.12;94527.44;5126232;27;20051;-77
2022/04/26 11:53:05;;;;;;;17.58;3.05;;;;;;;24.28;25.67;94522.97;5145941;27;20038;-77
2022/04/26 11:55:41;;;;;;;13.82;2.63;;;;;;;24.46;26.01;94521.75;5145033;27;20060;-77
2022/04/26 11:58:11;;;;;;;13.13;2.45;;;;;;;24.67;25.59;94524.38;5144391;27;20027;-77
2022/04/26 12:00:48;;;;;;;12.45;2.65;;;;;;;24.40;25.78;94514.28;5133627;27;20027;-77
2022/04/26 12:03:14;;;;;;;12.10;2.72;;;;;;;24.42;26.57;94517.41;5110563;28;20422;-77
2022/04/26 12:05:40;;;;;;;9.52;2.53;;;;;;;24.48;25.59;94513.44;5130397;28;20031;-77
2022/04/26 12:08:11;;;;;;;11.32;2.10;;;;;;;24.66;25.62;94516.72;5130540;28;20050;-77
2022/04/26 12:10:47;;;;;;;6.85;2.55;;;;;;;24.83;25.03;94503.25;5131533;28;20069;-77
2022/04/26 12:13:13;;;;;;;11.80;2.53;;;;;;;25.00;24.98;94508.41;5098005;28;20042;-77
2022/04/26 12:15:39;;;;;;;16.38;2.35;;;;;;;25.28;24.88;94503.25;5132235;28;20063;-77
2022/04/26 12:18:14;;;;;;;14.82;2.72;;;;;;;25.51;24.64;94495.56;5130489;28;20084;-78
2022/04/26 12:20:59;;;;;;;13.45;2.90;;;;;;;25.45;24.29;94507.56;5095106;28;20046;-77
2022/04/26 12:23:26;;;;;;;19.80;2.15;;;;;;;25.30;24.16;94498.38;5159993;22;20109;-77
2022/04/26 12:26:01;;;;;;;17.15;2.65;;;;;;;25.14;24.64;94502.78;5091321;28;20040;-77
2022/04/26 12:28:26;;;;;;;6.88;2.05;;;;;;;25.04;24.49;94503.19;5090034;28;20032;-78
2022/04/26 12:30:53;;;;;;;11.20;2.30;;;;;;;25.17;24.10;94498.69;5090475;28;20028;-77
2022/04/26 12:33:32;;;;;;;10.85;2.10;;;;;;;25.22;24.16;94495.78;5072913;28;20123;-77
2022/04/26 12:36:03;;;;;;;10.98;2.53;;;;;;;24.81;24.31;94492.16;5073208;28;20111;-76
2022/04/26 12:38:29;;;;;;;8.90;2.60;;;;;;;24.70;24.87;94486.47;5072332;28;20047;-76
2022/04/26 12:41:05;;;;;;;11.95;2.00;;;;;;;24.55;25.36;94498.50;5091063;28;20028;-74
2022/04/26 12:43:31;;;;;;;8.82;2.22;;;;;;;24.49;24.90;94499.81;5089780;28;20032;-75
2022/04/26 12:46:02;;;;;;;10.75;2.10;;;;;;;24.41;25.04;94494.59;5090846;28;20047;-76
2022/04/26 12:51:27;;;;;;;12.15;2.08;;;;;;;24.82;25.25;94480.41;5074633;28;20101;-77
2022/04/26 12:53:54;;;;;;;29.02;2.35;;;;;;;24.83;24.69;94487.28;5097619;28;20035;-77
2022/04/26 12:56:20;;;;;;;31.02;2.65;;;;;;;24.47;26.84;94510.00;5089788;28;20060;-77
2022/04/26 12:58:47;;;;;;;50.17;3.53;;;;;;;24.02;28.67;94503.78;5089816;28;20088;-77
2022/04/26 13:01:13;;;;;;;44.95;2.65;;;;;;;23.18;30.18;94498.28;5072823;28;20107;-78
2022/04/26 13:03:41;;;;;;;29.23;2.58;;;;;;;22.76;30.67;94516.63;5088853;28;20534;-77
2022/04/26 13:06:15;;;;;;;13.10;2.53;;;;;;;22.51;31.57;94520.09;5054352;28;20039;-77
2022/04/26 13:08:42;;;;;;;8.90;2.30;;;;;;;21.82;32.58;94520.84;5136780;22;20052;-77
2022/04/26 13:11:08;;;;;;;46.53;2.72;;;;;;;21.66;33.27;94574.53;5088894;28;20032;-78
2022/04/26 13:13:34;;;;;;;34.00;2.00;;;;;;;21.20;34.52;94549.25;5091032;28;20521;-78
2022/04/26 13:16:00;;;;;;;20.73;2.83;;;;;;;20.88;34.65;94558.28;5064341;28;20036;-77
2022/04/26 13:18:25;;;;;;;29.13;2.55;;;;;;;20.72;34.80;94549.16;5055573;28;20024;-79
2022/04/26 13:20:54;;;;;;;23.60;2.28;;;;;;;20.37;36.23;94548.88;5091146;28;20028;-79
2022/04/26 13:23:19;;;;;;;4.80;1.83;;;;;;;20.36;35.36;94563.94;5092579;28;20094;-78
2022/04/26 13:25:45;;;;;;;7.43;1.80;;;;;;;20.30;35.10;94549.28;5091063;28;20496;-79
2022/04/26 13:28:10;;;;;;;16.02;2.15;;;;;;;20.06;34.97;94564.63;5074476;28;20028;-79
2022/04/26 13:30:36;;;;;;;9.15;1.77;;;;;;;19.79;35.21;94581.28;5091689;28;20047;-79
2022/04/26 13:33:02;;;;;;;17.58;2.50;;;;;;;19.69;35.76;94568.31;5091413;28;20116;-78
2022/04/26 13:35:28;;;;;;;30.02;2.20;;;;;;;19.74;36.43;94553.13;5091395;28;20493;-79
2022/04/26 13:37:55;;;;;;;11.93;1.67;;;;;;;19.65;36.23;94551.47;5073867;28;20032;-79
2022/04/26 13:40:23;;;;;;;10.18;1.73;;;;;;;19.73;36.61;94545.53;5092575;28;20028;-78
2022/04/26 13:42:48;;;;;;;8.55;2.28;;;;;;;19.75;36.76;94551.28;5091786;28;20032;-78
2022/04/26 13:45:14;;;;;;;7.07;1.95;;;;;;;19.71;36.82;94532.63;5092411;28;20035;-78
2022/04/26 13:47:40;;;;;;;14.73;2.22;;;;;;;19.69;37.76;94518.19;5092173;28;20407;-79
2022/04/26 13:50:09;;;;;;;7.38;1.65;;;;;;;19.81;37.55;94528.19;5073356;28;20052;-79
2022/04/26 13:52:34;;;;;;;4.32;1.88;;;;;;;19.77;37.92;94517.47;5074515;28;20047;-78
2022/04/26 13:55:00;;;;;;;15.82;2.03;;;;;;;19.57;38.64;94521.31;5091850;28;20090;-78
2022/04/26 13:57:25;;;;;;;9.55;1.80;;;;;;;19.33;39.28;94525.97;5092952;28;20028;-79
2022/04/26 13:59:51;;;;;;;7.60;1.98;;;;;;;19.38;39.39;94531.94;5094035;28;20443;-79
2022/04/26 14:02:18;;;;;;;15.63;2.20;;;;;;;19.40;39.16;94536.91;5096922;28;20055;-79
2022/04/26 14:04:47;;;;;;;8.50;1.65;;;;;;;19.41;39.53;94546.38;5092193;28;20043;-79
2022/04/26 14:07:13;;;;;;;5.40;2.38;;;;;;;19.47;39.53;94547.84;5122966;22;20495;-79
2022/04/26 14:09:38;;;;;;;9.15;1.75;;;;;;;19.46;39.21;94554.97;5086956;28;20055;-78
2022/04/26 14:12:04;;;;;;;4.88;1.95;;;;;;;19.64;38.94;94558.63;5084857;28;20488;-79
2022/04/26 14:22:48;;;;;;;8.43;2.17;;;;;;;19.87;38.96;94614.13;5080256;28;20058;-79
2022/04/26 14:25:14;;;;;;;6.97;2.17;;;;;;;19.45;39.38;94626.47;5083655;28;20501;-78
2022/04/26 14:27:41;;;;;;;13.02;1.85;;;;;;;19.31;39.12;94628.31;5088996;28;20041;-78
2022/04/26 14:30:08;;;;;;;21.17;2.58;;;;;;;19.26;39.14;94646.84;5088838;28;20044;-78
2022/04/26 14:32:33;;;;;;;3.47;1.75;;;;;;;19.19;39.50;94644.56;5069502;28;20071;-77
2022/04/26 14:34:59;;;;;;;14.27;2.10;;;;;;;18.99;39.69;94653.59;5094255;28;20040;-77
2022/04/26 14:37:24;;;;;;;23.00;2.53;;;;;;;18.82;41.95;94695.50;5060549;28;20024;-78
2022/04/26 14:39:50;;;;;;;5.80;1.70;;;;;;;18.08;44.54;94652.25;5089233;28;20043;-78
2022/04/26 14:42:15;;;;;;;7.95;2.33;;;;;;;17.68;45.85;94672.69;5080667;28;20816;-78
2022/04/26 14:44:41;;;;;;;12.73;2.03;;;;;;;17.48;45.86;94657.88;5064556;28;20103;-78
2022/04/26 14:47:09;;;;;;;8.27;1.60;;;;;;;17.51;45.77;94653.91;5066741;28;20467;-78
2022/04/26 14:49:35;;;;;;;6.63;1.58;;;;;;;17.55;45.18;94678.56;5084833;28;20092;-78
2022/04/26 14:52:01;;;;;;;7.07;1.75;;;;;;;17.37;45.03;94682.69;5065405;28;20105;-78
2022/04/26 14:54:26;;;;;;;7.65;1.70;;;;;;;17.43;45.18;94686.84;5065205;28;20496;-78
2022/04/26 14:56:51;;;;;;;6.25;1.63;;;;;;;17.64;44.53;94703.19;5081393;28;20044;-78
2022/04/26 14:59:18;;;;;;;1.67;1.42;;;;;;;17.69;44.00;94696.06;5079800;28;20765;-78
2022/04/26 15:01:48;;;;;;;2.65;1.17;;;;;;;17.76;43.99;94694.97;5080668;28;20104;-78
2022/04/26 15:04:16;;;;;;;24.55;1.67;;;;;;;17.89;44.75;94689.00;5078185;28;20035;-77
2022/04/26 15:06:42;;;;;;;3.88;1.30;;;;;;;18.00;45.41;94691.25;5066427;28;20040;-78
2022/04/26 15:17:21;;;;;;;5.47;1.77;;;;;;;18.16;45.34;94698.97;5065475;28;20418;-77
2022/04/26 15:19:48;;;;;;;4.47;1.77;;;;;;;18.16;45.27;94693.72;5061788;28;20020;-77
2022/04/26 15:22:14;;;;;;;6.28;1.85;;;;;;;18.07;45.71;94693.56;5079771;28;20182;-77
2022/04/26 15:24:55;;;;;;;3.50;1.50;;;;;;;17.87;46.26;94699.81;5077714;28;20539;-77
2022/04/26 15:27:20;;;;;;;14.63;1.80;;;;;;;17.99;46.28;94688.91;5082685;28;20040;-77
2022/04/26 15:29:46;;;;;;;5.00;1.92;;;;;;;18.24;45.40;94701.00;5081295;28;20101;-77
2022/04/26 15:32:19;;;;;;;6.05;1.60;;;;;;;18.29;45.12;94716.72;5078562;28;20557;-77
2022/04/26 15:34:45;;;;;;;3.55;1.85;;;;;;;18.28;45.70;94707.25;5077644;28;20428;-77
2022/04/26 15:37:11;;;;;;;2.38;1.45;;;;;;;18.45;45.27;94715.47;5083247;28;20028;-77
2022/04/26 15:39:36;;;;;;;4.65;2.42;;;;;;;18.50;44.82;94704.84;5083442;28;20028;-77
2022/04/26 15:42:02;;;;;;;3.70;2.42;;;;;;;18.58;44.60;94714.00;5082103;28;20039;-78
2022/04/26 15:44:27;;;;;;;7.72;2.03;;;;;;;18.59;44.33;94702.38;5080662;28;20047;-77
2022/04/26 15:46:56;;;;;;;11.45;1.90;;;;;;;18.73;43.79;94713.81;5082161;28;20186;-77
2022/04/26 15:49:22;;;;;;;4.60;1.70;;;;;;;18.70;43.49;94708.31;5073916;28;20052;-77
2022/04/26 15:51:48;;;;;;;3.17;1.40;;;;;;;18.63;43.45;94702.59;5064777;28;20109;-77